sensor_id;sensor_type;location;lat;lon;timestamp;pressure;altitude;pressure_sealevel;temperature;humidity
78890;BME280;68279;48.964;14.502;2023-03-01T00:01:29;97913.34;;;-6.32;94.88
78890;BME280;68279;48.964;14.502;2023-03-01T00:03:55;97914.88;;;-6.47;94.84
78890;BME280;68279;48.964;14.502;2023-03-01T00:06:22;97916.16;;;-6.51;95.33
78890;BME280;68279;48.964;14.502;2023-03-01T00:08:48;97905.09;;;-6.27;95.53
78890;BME280;68279;48.964;14.502;2023-03-01T00:11:24;97904.91;;;-6.08;95.93
78890;BME280;68279;48.964;14.502;2023-03-01T00:13:52;97901.59;;;-6.18;95.81
78890;BME280;68279;48.964;14.502;2023-03-01T00:16:21;97901.81;;;-6.29;95.32
78890;BME280;68279;48.964;14.502;2023-03-01T00:18:48;97898.47;;;-6.21;95.42
78890;BME280;68279;48.964;14.502;2023-03-01T00:21:14;97902.25;;;-6.16;95.65
78890;BME280;68279;48.964;14.502;2023-03-01T00:23:39;97903.97;;;-5.98;95.63
78890;BME280;68279;48.964;14.502;2023-03-01T00:26:08;97901.38;;;-5.98;95.44
78890;BME280;68279;48.964;14.502;2023-03-01T00:28:34;97897.13;;;-6.00;95.48
78890;BME280;68279;48.964;14.502;2023-03-01T00:31:13;97893.19;;;-6.04;95.40
78890;BME280;68279;48.964;14.502;2023-03-01T00:33:39;97902.03;;;-6.22;95.31
78890;BME280;68279;48.964;14.502;2023-03-01T00:36:05;97900.53;;;-6.51;95.38
78890;BME280;68279;48.964;14.502;2023-03-01T00:38:35;97897.97;;;-6.69;95.89
78890;BME280;68279;48.964;14.502;2023-03-01T00:41:08;97896.53;;;-6.81;96.21
78890;BME280;68279;48.964;14.502;2023-03-01T00:43:35;97898.31;;;-6.64;96.56
78890;BME280;68279;48.964;14.502;2023-03-01T00:46:06;97890.59;;;-6.91;96.23
78890;BME280;68279;48.964;14.502;2023-03-01T00:48:32;97886.06;;;-7.07;96.07
78890;BME280;68279;48.964;14.502;2023-03-01T00:53:33;97876.19;;;-7.03;95.92
78890;BME280;68279;48.964;14.502;2023-03-01T00:55:58;97868.53;;;-6.87;96.47
78890;BME280;68279;48.964;14.502;2023-03-01T00:58:24;97868.03;;;-6.47;97.14
78890;BME280;68279;48.964;14.502;2023-03-01T01:00:49;97867.38;;;-6.49;96.81
78890;BME280;68279;48.964;14.502;2023-03-01T01:03:15;97866.00;;;-6.61;96.72
78890;BME280;68279;48.964;14.502;2023-03-01T01:05:41;97857.56;;;-6.55;96.79
78890;BME280;68279;48.964;14.502;2023-03-01T01:08:06;97858.22;;;-6.79;96.63
78890;BME280;68279;48.964;14.502;2023-03-01T01:10:34;97857.91;;;-6.94;96.42
78890;BME280;68279;48.964;14.502;2023-03-01T01:12:59;97862.00;;;-7.27;96.36
78890;BME280;68279;48.964;14.502;2023-03-01T01:15:26;97856.94;;;-7.28;97.24
78890;BME280;68279;48.964;14.502;2023-03-01T01:17:52;97852.94;;;-6.87;97.50
78890;BME280;68279;48.964;14.502;2023-03-01T01:20:17;97851.28;;;-6.70;97.36
78890;BME280;68279;48.964;14.502;2023-03-01T01:22:43;97852.31;;;-6.63;97.54
78890;BME280;68279;48.964;14.502;2023-03-01T01:25:08;97853.38;;;-6.74;96.90
78890;BME280;68279;48.964;14.502;2023-03-01T01:27:34;97856.13;;;-6.75;96.66
78890;BME280;68279;48.964;14.502;2023-03-01T01:30:00;97857.25;;;-6.78;97.11
78890;BME280;68279;48.964;14.502;2023-03-01T01:32:25;97848.06;;;-6.64;97.08
78890;BME280;68279;48.964;14.502;2023-03-01T01:34:51;97850.56;;;-6.54;96.77
78890;BME280;68279;48.964;14.502;2023-03-01T01:37:16;97847.34;;;-6.74;96.68
78890;BME280;68279;48.964;14.502;2023-03-01T01:39:42;97845.81;;;-7.03;96.43
78890;BME280;68279;48.964;14.502;2023-03-01T01:42:15;97835.78;;;-7.16;96.11
78890;BME280;68279;48.964;14.502;2023-03-01T01:44:42;97840.94;;;-7.06;96.45
78890;BME280;68279;48.964;14.502;2023-03-01T01:47:14;97837.94;;;-6.93;96.45
78890;BME280;68279;48.964;14.502;2023-03-01T01:49:51;97834.53;;;-7.11;96.24
78890;BME280;68279;48.964;14.502;2023-03-01T01:52:25;97828.69;;;-7.14;95.90
78890;BME280;68279;48.964;14.502;2023-03-01T01:57:42;97824.28;;;-7.13;96.62
78890;BME280;68279;48.964;14.502;2023-03-01T02:00:12;97822.28;;;-7.37;95.71
78890;BME280;68279;48.964;14.502;2023-03-01T02:02:40;97818.63;;;-7.44;96.21
78890;BME280;68279;48.964;14.502;2023-03-01T02:05:22;97825.34;;;-7.24;96.59
78890;BME280;68279;48.964;14.502;2023-03-01T02:07:50;97824.44;;;-7.50;95.95
78890;BME280;68279;48.964;14.502;2023-03-01T02:10:15;97825.69;;;-7.36;96.71
78890;BME280;68279;48.964;14.502;2023-03-01T02:12:42;97819.81;;;-7.56;96.23
78890;BME280;68279;48.964;14.502;2023-03-01T02:15:08;97823.81;;;-7.62;96.43
78890;BME280;68279;48.964;14.502;2023-03-01T02:17:35;97822.72;;;-7.59;96.71
78890;BME280;68279;48.964;14.502;2023-03-01T02:20:16;97826.25;;;-7.60;96.48
78890;BME280;68279;48.964;14.502;2023-03-01T02:22:45;97820.34;;;-7.80;96.83
78890;BME280;68279;48.964;14.502;2023-03-01T02:28:03;97827.22;;;-7.61;96.99
78890;BME280;68279;48.964;14.502;2023-03-01T02:30:32;97830.84;;;-8.00;96.39
78890;BME280;68279;48.964;14.502;2023-03-01T02:33:00;97825.03;;;-8.11;97.12
78890;BME280;68279;48.964;14.502;2023-03-01T02:35:31;97831.75;;;-7.91;98.36
78890;BME280;68279;48.964;14.502;2023-03-01T02:38:00;97828.44;;;-7.38;98.22
78890;BME280;68279;48.964;14.502;2023-03-01T02:40:28;97824.13;;;-7.29;97.72
78890;BME280;68279;48.964;14.502;2023-03-01T02:42:57;97825.72;;;-7.64;97.27
78890;BME280;68279;48.964;14.502;2023-03-01T02:45:24;97818.47;;;-7.43;97.73
78890;BME280;68279;48.964;14.502;2023-03-01T02:47:50;97819.34;;;-7.52;97.72
78890;BME280;68279;48.964;14.502;2023-03-01T02:53:15;97823.28;;;-7.65;97.33
78890;BME280;68279;48.964;14.502;2023-03-01T02:55:37;97825.66;;;-7.72;96.85
78890;BME280;68279;48.964;14.502;2023-03-01T02:58:04;97818.75;;;-7.63;96.64
78890;BME280;68279;48.964;14.502;2023-03-01T03:00:34;97816.63;;;-7.68;96.66
78890;BME280;68279;48.964;14.502;2023-03-01T03:03:04;97818.91;;;-7.65;96.21
78890;BME280;68279;48.964;14.502;2023-03-01T03:05:31;97817.22;;;-7.56;96.29
78890;BME280;68279;48.964;14.502;2023-03-01T03:08:00;97813.25;;;-7.60;96.58
78890;BME280;68279;48.964;14.502;2023-03-01T03:10:30;97821.84;;;-7.50;96.54
78890;BME280;68279;48.964;14.502;2023-03-01T03:12:59;97825.34;;;-7.69;96.28
78890;BME280;68279;48.964;14.502;2023-03-01T03:15:26;97831.00;;;-8.01;95.88
78890;BME280;68279;48.964;14.502;2023-03-01T03:17:53;97833.28;;;-7.98;96.56
78890;BME280;68279;48.964;14.502;2023-03-01T03:20:22;97834.81;;;-7.78;96.48
78890;BME280;68279;48.964;14.502;2023-03-01T03:22:50;97834.66;;;-7.66;96.84
78890;BME280;68279;48.964;14.502;2023-03-01T03:25:17;97828.72;;;-7.59;96.37
78890;BME280;68279;48.964;14.502;2023-03-01T03:27:44;97838.16;;;-7.58;96.18
78890;BME280;68279;48.964;14.502;2023-03-01T03:30:13;97838.63;;;-7.72;95.98
78890;BME280;68279;48.964;14.502;2023-03-01T03:32:43;97837.09;;;-7.92;95.86
78890;BME280;68279;48.964;14.502;2023-03-01T03:35:21;97832.19;;;-7.95;95.81
78890;BME280;68279;48.964;14.502;2023-03-01T03:37:47;97827.38;;;-7.90;95.81
78890;BME280;68279;48.964;14.502;2023-03-01T03:40:31;97829.34;;;-7.75;95.71
78890;BME280;68279;48.964;14.502;2023-03-01T03:42:56;97832.06;;;-7.66;96.08
78890;BME280;68279;48.964;14.502;2023-03-01T03:45:25;97834.56;;;-7.75;95.78
78890;BME280;68279;48.964;14.502;2023-03-01T03:47:52;97832.53;;;-7.81;95.58
78890;BME280;68279;48.964;14.502;2023-03-01T03:50:18;97832.69;;;-7.82;95.77
78890;BME280;68279;48.964;14.502;2023-03-01T03:52:44;97821.94;;;-7.70;95.79
78890;BME280;68279;48.964;14.502;2023-03-01T03:55:11;97828.03;;;-7.61;96.37
78890;BME280;68279;48.964;14.502;2023-03-01T03:57:38;97826.78;;;-7.57;95.94
78890;BME280;68279;48.964;14.502;2023-03-01T04:00:06;97826.16;;;-7.68;95.85
78890;BME280;68279;48.964;14.502;2023-03-01T04:02:44;97834.22;;;-7.89;95.74
78890;BME280;68279;48.964;14.502;2023-03-01T04:05:10;97827.13;;;-7.97;95.78
78890;BME280;68279;48.964;14.502;2023-03-01T04:07:37;97826.31;;;-7.97;95.78
78890;BME280;68279;48.964;14.502;2023-03-01T04:10:05;97832.09;;;-8.04;95.56
78890;BME280;68279;48.964;14.502;2023-03-01T04:12:32;97827.75;;;-8.13;95.54
78890;BME280;68279;48.964;14.502;2023-03-01T04:15:00;97823.41;;;-8.22;96.01
78890;BME280;68279;48.964;14.502;2023-03-01T04:17:25;97819.94;;;-8.03;96.10
78890;BME280;68279;48.964;14.502;2023-03-01T04:19:51;97823.00;;;-7.90;95.96
78890;BME280;68279;48.964;14.502;2023-03-01T04:22:17;97812.63;;;-7.90;96.03
78890;BME280;68279;48.964;14.502;2023-03-01T04:24:44;97801.47;;;-7.73;96.39
78890;BME280;68279;48.964;14.502;2023-03-01T04:27:10;97802.22;;;-7.62;96.03
78890;BME280;68279;48.964;14.502;2023-03-01T04:29:37;97803.66;;;-7.78;95.43
78890;BME280;68279;48.964;14.502;2023-03-01T04:32:02;97803.06;;;-7.89;95.60
78890;BME280;68279;48.964;14.502;2023-03-01T04:34:28;97800.34;;;-8.25;95.33
78890;BME280;68279;48.964;14.502;2023-03-01T04:36:54;97803.19;;;-8.36;95.45
78890;BME280;68279;48.964;14.502;2023-03-01T04:39:20;97805.25;;;-8.22;95.68
78890;BME280;68279;48.964;14.502;2023-03-01T04:41:47;97807.06;;;-8.32;95.91
78890;BME280;68279;48.964;14.502;2023-03-01T04:44:13;97803.50;;;-8.21;96.47
78890;BME280;68279;48.964;14.502;2023-03-01T04:46:39;97802.75;;;-8.14;96.36
78890;BME280;68279;48.964;14.502;2023-03-01T04:49:06;97807.78;;;-8.30;96.27
78890;BME280;68279;48.964;14.502;2023-03-01T04:51:31;97800.84;;;-8.39;96.36
78890;BME280;68279;48.964;14.502;2023-03-01T04:53:58;97799.44;;;-8.06;96.74
78890;BME280;68279;48.964;14.502;2023-03-01T04:56:25;97798.50;;;-8.05;97.01
78890;BME280;68279;48.964;14.502;2023-03-01T04:58:53;97793.75;;;-8.10;96.20
78890;BME280;68279;48.964;14.502;2023-03-01T05:01:20;97787.38;;;-7.97;96.44
78890;BME280;68279;48.964;14.502;2023-03-01T05:03:48;97799.50;;;-7.88;96.56
78890;BME280;68279;48.964;14.502;2023-03-01T05:06:15;97794.03;;;-7.85;96.39
78890;BME280;68279;48.964;14.502;2023-03-01T05:08:43;97792.88;;;-8.01;96.29
78890;BME280;68279;48.964;14.502;2023-03-01T05:11:09;97788.59;;;-7.92;96.00
78890;BME280;68279;48.964;14.502;2023-03-01T05:13:36;97785.69;;;-7.89;95.59
78890;BME280;68279;48.964;14.502;2023-03-01T05:16:03;97786.09;;;-7.84;95.56
78890;BME280;68279;48.964;14.502;2023-03-01T05:18:30;97793.19;;;-8.04;95.21
78890;BME280;68279;48.964;14.502;2023-03-01T05:21:05;97787.34;;;-8.15;94.72
78890;BME280;68279;48.964;14.502;2023-03-01T05:23:32;97782.19;;;-8.25;94.87
78890;BME280;68279;48.964;14.502;2023-03-01T05:26:03;97775.47;;;-8.18;94.79
78890;BME280;68279;48.964;14.502;2023-03-01T05:28:30;97776.16;;;-8.16;94.90
78890;BME280;68279;48.964;14.502;2023-03-01T05:30:56;97778.28;;;-8.29;94.82
78890;BME280;68279;48.964;14.502;2023-03-01T05:33:23;97782.41;;;-8.73;94.48
78890;BME280;68279;48.964;14.502;2023-03-01T05:35:49;97775.94;;;-8.60;95.66
78890;BME280;68279;48.964;14.502;2023-03-01T05:38:17;97782.09;;;-8.33;95.77
78890;BME280;68279;48.964;14.502;2023-03-01T05:40:44;97793.91;;;-8.39;95.31
78890;BME280;68279;48.964;14.502;2023-03-01T05:43:10;97791.97;;;-8.37;95.05
78890;BME280;68279;48.964;14.502;2023-03-01T05:45:37;97796.44;;;-8.29;94.94
78890;BME280;68279;48.964;14.502;2023-03-01T05:48:04;97803.88;;;-8.16;95.05
78890;BME280;68279;48.964;14.502;2023-03-01T05:50:34;97794.16;;;-8.14;95.29
78890;BME280;68279;48.964;14.502;2023-03-01T05:53:02;97791.41;;;-8.13;95.22
78890;BME280;68279;48.964;14.502;2023-03-01T05:55:30;97795.31;;;-7.99;95.44
78890;BME280;68279;48.964;14.502;2023-03-01T05:58:00;97793.22;;;-7.86;95.58
78890;BME280;68279;48.964;14.502;2023-03-01T06:00:26;97797.59;;;-7.68;95.17
78890;BME280;68279;48.964;14.502;2023-03-01T06:02:54;97801.22;;;-7.79;94.56
78890;BME280;68279;48.964;14.502;2023-03-01T06:05:20;97798.53;;;-7.87;94.68
78890;BME280;68279;48.964;14.502;2023-03-01T06:07:46;97807.38;;;-7.80;94.52
78890;BME280;68279;48.964;14.502;2023-03-01T06:10:13;97816.69;;;-7.87;94.43
78890;BME280;68279;48.964;14.502;2023-03-01T06:12:40;97815.47;;;-7.83;94.03
78890;BME280;68279;48.964;14.502;2023-03-01T06:15:07;97812.00;;;-7.74;94.14
78890;BME280;68279;48.964;14.502;2023-03-01T06:17:36;97815.22;;;-7.45;94.13
78890;BME280;68279;48.964;14.502;2023-03-01T06:20:04;97832.97;;;-7.22;94.07
78890;BME280;68279;48.964;14.502;2023-03-01T06:22:30;97829.50;;;-7.13;93.96
78890;BME280;68279;48.964;14.502;2023-03-01T06:24:56;97828.22;;;-7.09;93.45
78890;BME280;68279;48.964;14.502;2023-03-01T06:27:24;97818.84;;;-7.02;93.25
78890;BME280;68279;48.964;14.502;2023-03-01T06:29:49;97824.78;;;-7.09;93.32
78890;BME280;68279;48.964;14.502;2023-03-01T06:32:18;97824.44;;;-6.97;93.37
78890;BME280;68279;48.964;14.502;2023-03-01T06:34:44;97825.28;;;-6.70;93.12
78890;BME280;68279;48.964;14.502;2023-03-01T06:37:09;97817.97;;;-6.67;92.76
78890;BME280;68279;48.964;14.502;2023-03-01T06:39:35;97820.47;;;-6.57;92.93
78890;BME280;68279;48.964;14.502;2023-03-01T06:42:00;97823.84;;;-6.65;92.44
78890;BME280;68279;48.964;14.502;2023-03-01T06:44:26;97827.31;;;-6.56;92.87
78890;BME280;68279;48.964;14.502;2023-03-01T06:46:52;97821.28;;;-6.57;92.85
78890;BME280;68279;48.964;14.502;2023-03-01T06:49:18;97820.38;;;-6.21;92.76
78890;BME280;68279;48.964;14.502;2023-03-01T06:51:44;97821.78;;;-5.85;92.86
78890;BME280;68279;48.964;14.502;2023-03-01T06:54:10;97820.41;;;-5.63;93.05
78890;BME280;68279;48.964;14.502;2023-03-01T06:56:35;97818.50;;;-5.45;92.87
78890;BME280;68279;48.964;14.502;2023-03-01T06:59:01;97829.81;;;-5.20;93.15
78890;BME280;68279;48.964;14.502;2023-03-01T07:01:29;97824.44;;;-5.02;92.79
78890;BME280;68279;48.964;14.502;2023-03-01T07:03:54;97824.94;;;-4.82;92.20
78890;BME280;68279;48.964;14.502;2023-03-01T07:06:21;97825.75;;;-4.65;92.03
78890;BME280;68279;48.964;14.502;2023-03-01T07:08:47;97830.59;;;-4.46;91.37
78890;BME280;68279;48.964;14.502;2023-03-01T07:11:13;97817.19;;;-4.35;90.88
78890;BME280;68279;48.964;14.502;2023-03-01T07:13:39;97821.94;;;-4.30;90.42
78890;BME280;68279;48.964;14.502;2023-03-01T07:16:04;97818.16;;;-4.28;89.87
78890;BME280;68279;48.964;14.502;2023-03-01T07:18:30;97807.69;;;-4.11;89.87
78890;BME280;68279;48.964;14.502;2023-03-01T07:20:56;97817.28;;;-3.95;90.45
78890;BME280;68279;48.964;14.502;2023-03-01T07:23:21;97804.22;;;-3.64;89.17
78890;BME280;68279;48.964;14.502;2023-03-01T07:25:54;97809.38;;;-3.79;88.80
78890;BME280;68279;48.964;14.502;2023-03-01T07:28:22;97805.94;;;-3.80;87.60
78890;BME280;68279;48.964;14.502;2023-03-01T07:30:48;97799.94;;;-3.57;88.62
78890;BME280;68279;48.964;14.502;2023-03-01T07:33:15;97806.84;;;-3.33;87.43
78890;BME280;68279;48.964;14.502;2023-03-01T07:35:40;97805.53;;;-3.60;86.97
78890;BME280;68279;48.964;14.502;2023-03-01T07:38:06;97804.19;;;-3.25;86.83
78890;BME280;68279;48.964;14.502;2023-03-01T07:40:32;97801.34;;;-3.16;86.49
78890;BME280;68279;48.964;14.502;2023-03-01T07:42:58;97805.34;;;-3.05;84.99
78890;BME280;68279;48.964;14.502;2023-03-01T07:45:25;97806.75;;;-3.17;85.01
78890;BME280;68279;48.964;14.502;2023-03-01T07:47:54;97796.06;;;-2.93;85.08
78890;BME280;68279;48.964;14.502;2023-03-01T07:50:20;97797.16;;;-2.64;83.67
78890;BME280;68279;48.964;14.502;2023-03-01T07:52:47;97791.16;;;-2.35;82.23
78890;BME280;68279;48.964;14.502;2023-03-01T07:55:13;97795.56;;;-2.50;83.29
78890;BME280;68279;48.964;14.502;2023-03-01T07:57:39;97791.59;;;-2.46;82.13
78890;BME280;68279;48.964;14.502;2023-03-01T08:00:05;97780.78;;;-2.29;80.88
78890;BME280;68279;48.964;14.502;2023-03-01T08:02:31;97778.44;;;-1.94;81.79
78890;BME280;68279;48.964;14.502;2023-03-01T08:04:57;97785.28;;;-1.93;81.78
78890;BME280;68279;48.964;14.502;2023-03-01T08:07:23;97783.19;;;-1.83;81.48
78890;BME280;68279;48.964;14.502;2023-03-01T08:09:48;97761.66;;;-1.78;79.20
78890;BME280;68279;48.964;14.502;2023-03-01T08:12:14;97764.38;;;-1.86;79.43
78890;BME280;68279;48.964;14.502;2023-03-01T08:14:41;97769.13;;;-1.60;79.58
78890;BME280;68279;48.964;14.502;2023-03-01T08:17:07;97766.53;;;-1.39;78.70
78890;BME280;68279;48.964;14.502;2023-03-01T08:19:32;97763.56;;;-1.15;77.85
78890;BME280;68279;48.964;14.502;2023-03-01T08:22:01;97768.66;;;-0.85;77.03
78890;BME280;68279;48.964;14.502;2023-03-01T08:24:27;97763.03;;;-0.82;76.42
78890;BME280;68279;48.964;14.502;2023-03-01T08:26:53;97768.19;;;-0.95;76.32
78890;BME280;68279;48.964;14.502;2023-03-01T08:29:19;97772.16;;;-0.78;76.38
78890;BME280;68279;48.964;14.502;2023-03-01T08:31:45;97770.50;;;-0.86;74.91
78890;BME280;68279;48.964;14.502;2023-03-01T08:34:14;97768.69;;;-0.57;75.68
78890;BME280;68279;48.964;14.502;2023-03-01T08:36:42;97766.00;;;-0.64;74.42
78890;BME280;68279;48.964;14.502;2023-03-01T08:39:13;97753.94;;;-0.23;73.35
78890;BME280;68279;48.964;14.502;2023-03-01T08:41:39;97751.34;;;0.18;73.85
78890;BME280;68279;48.964;14.502;2023-03-01T08:44:05;97753.47;;;0.01;72.03
78890;BME280;68279;48.964;14.502;2023-03-01T08:46:34;97751.22;;;0.46;71.05
78890;BME280;68279;48.964;14.502;2023-03-01T08:49:13;97751.91;;;0.81;71.83
78890;BME280;68279;48.964;14.502;2023-03-01T08:51:39;97745.22;;;0.85;67.63
78890;BME280;68279;48.964;14.502;2023-03-01T08:54:15;97751.75;;;1.16;68.85
78890;BME280;68279;48.964;14.502;2023-03-01T08:56:41;97745.47;;;1.30;67.82
78890;BME280;68279;48.964;14.502;2023-03-01T08:59:07;97737.47;;;1.96;67.60
78890;BME280;68279;48.964;14.502;2023-03-01T09:01:33;97738.53;;;2.33;67.02
78890;BME280;68279;48.964;14.502;2023-03-01T09:03:58;97727.16;;;2.39;65.42
78890;BME280;68279;48.964;14.502;2023-03-01T09:06:24;97736.13;;;2.63;66.57
78890;BME280;68279;48.964;14.502;2023-03-01T09:08:50;97728.13;;;2.83;66.21
78890;BME280;68279;48.964;14.502;2023-03-01T09:11:19;97738.06;;;2.81;64.92
78890;BME280;68279;48.964;14.502;2023-03-01T09:13:46;97735.16;;;2.89;63.90
78890;BME280;68279;48.964;14.502;2023-03-01T09:16:13;97722.47;;;3.04;63.12
78890;BME280;68279;48.964;14.502;2023-03-01T09:18:39;97727.97;;;3.28;62.02
78890;BME280;68279;48.964;14.502;2023-03-01T09:21:06;97727.63;;;2.93;59.85
78890;BME280;68279;48.964;14.502;2023-03-01T09:23:45;97728.13;;;3.33;60.08
78890;BME280;68279;48.964;14.502;2023-03-01T09:26:13;97719.53;;;3.62;60.24
78890;BME280;68279;48.964;14.502;2023-03-01T09:28:41;97716.81;;;3.69;62.28
78890;BME280;68279;48.964;14.502;2023-03-01T09:31:07;97714.09;;;3.76;60.45
78890;BME280;68279;48.964;14.502;2023-03-01T09:33:33;97716.41;;;3.90;60.35
78890;BME280;68279;48.964;14.502;2023-03-01T09:36:01;97714.38;;;4.04;59.15
78890;BME280;68279;48.964;14.502;2023-03-01T09:38:28;97705.63;;;4.22;59.20
78890;BME280;68279;48.964;14.502;2023-03-01T09:40:54;97699.28;;;4.23;60.13
78890;BME280;68279;48.964;14.502;2023-03-01T09:43:43;97703.06;;;4.34;58.67
78890;BME280;68279;48.964;14.502;2023-03-01T09:46:12;97704.47;;;4.48;57.96
78890;BME280;68279;48.964;14.502;2023-03-01T09:48:44;97699.88;;;4.43;57.07
78890;BME280;68279;48.964;14.502;2023-03-01T09:51:18;97707.63;;;4.26;57.63
78890;BME280;68279;48.964;14.502;2023-03-01T09:53:45;97704.19;;;4.08;57.94
78890;BME280;68279;48.964;14.502;2023-03-01T09:56:20;97700.94;;;4.54;57.09
78890;BME280;68279;48.964;14.502;2023-03-01T10:01:48;97701.47;;;4.74;57.20
78890;BME280;68279;48.964;14.502;2023-03-01T10:09:38;97694.97;;;5.12;54.88
78890;BME280;68279;48.964;14.502;2023-03-01T10:12:10;97696.28;;;5.45;55.18
78890;BME280;68279;48.964;14.502;2023-03-01T10:14:54;97692.44;;;5.29;53.80
78890;BME280;68279;48.964;14.502;2023-03-01T10:17:32;97686.00;;;5.25;52.69
78890;BME280;68279;48.964;14.502;2023-03-01T10:20:24;97677.69;;;5.68;51.94
78890;BME280;68279;48.964;14.502;2023-03-01T10:22:51;97688.75;;;5.30;52.87
78890;BME280;68279;48.964;14.502;2023-03-01T10:30:43;97662.31;;;5.82;52.73
78890;BME280;68279;48.964;14.502;2023-03-01T10:33:22;97658.97;;;5.98;52.30
78890;BME280;68279;48.964;14.502;2023-03-01T10:35:49;97653.56;;;5.93;52.16
78890;BME280;68279;48.964;14.502;2023-03-01T10:38:16;97648.84;;;5.83;51.45
78890;BME280;68279;48.964;14.502;2023-03-01T10:40:59;97650.50;;;6.13;50.70
78890;BME280;68279;48.964;14.502;2023-03-01T10:43:53;97645.16;;;6.24;51.25
78890;BME280;68279;48.964;14.502;2023-03-01T10:46:27;97646.44;;;6.67;51.02
78890;BME280;68279;48.964;14.502;2023-03-01T10:49:06;97648.44;;;6.60;51.35
78890;BME280;68279;48.964;14.502;2023-03-01T10:51:32;97632.91;;;6.69;50.20
78890;BME280;68279;48.964;14.502;2023-03-01T10:53:58;97634.03;;;7.23;49.21
78890;BME280;68279;48.964;14.502;2023-03-01T10:56:24;97624.13;;;6.51;49.90
78890;BME280;68279;48.964;14.502;2023-03-01T10:58:59;97614.56;;;7.01;49.65
78890;BME280;68279;48.964;14.502;2023-03-01T11:01:30;97605.00;;;7.38;48.98
78890;BME280;68279;48.964;14.502;2023-03-01T11:06:29;97599.56;;;7.50;50.79
78890;BME280;68279;48.964;14.502;2023-03-01T11:08:54;97593.94;;;7.47;48.97
78890;BME280;68279;48.964;14.502;2023-03-01T11:11:53;97586.22;;;7.45;49.38
78890;BME280;68279;48.964;14.502;2023-03-01T11:14:21;97593.34;;;7.83;48.08
78890;BME280;68279;48.964;14.502;2023-03-01T11:16:57;97585.16;;;7.90;48.62
78890;BME280;68279;48.964;14.502;2023-03-01T11:19:23;97578.84;;;7.74;47.10
78890;BME280;68279;48.964;14.502;2023-03-01T11:24:30;97584.31;;;8.11;49.68
78890;BME280;68279;48.964;14.502;2023-03-01T11:26:59;97582.63;;;8.49;48.01
78890;BME280;68279;48.964;14.502;2023-03-01T11:29:32;97574.34;;;8.50;46.02
78890;BME280;68279;48.964;14.502;2023-03-01T11:32:05;97573.63;;;8.33;46.36
78890;BME280;68279;48.964;14.502;2023-03-01T11:34:49;97567.44;;;8.49;46.15
78890;BME280;68279;48.964;14.502;2023-03-01T11:40:16;97570.84;;;8.77;48.50
78890;BME280;68279;48.964;14.502;2023-03-01T11:45:38;97564.53;;;8.56;47.69
78890;BME280;68279;48.964;14.502;2023-03-01T11:50:56;97545.00;;;9.25;46.84
78890;BME280;68279;48.964;14.502;2023-03-01T11:59:25;97543.25;;;8.98;49.40
78890;BME280;68279;48.964;14.502;2023-03-01T12:10:22;97525.28;;;9.93;45.57
78890;BME280;68279;48.964;14.502;2023-03-01T12:13:17;97519.44;;;9.29;44.90
78890;BME280;68279;48.964;14.502;2023-03-01T12:24:03;97513.22;;;9.18;45.41
78890;BME280;68279;48.964;14.502;2023-03-01T12:26:34;97510.41;;;8.93;45.18
78890;BME280;68279;48.964;14.502;2023-03-01T12:46:04;97518.84;;;8.79;46.00
78890;BME280;68279;48.964;14.502;2023-03-01T12:48:43;97517.69;;;9.02;47.35
78890;BME280;68279;48.964;14.502;2023-03-01T12:51:18;97529.09;;;9.45;47.74
78890;BME280;68279;48.964;14.502;2023-03-01T12:53:50;97525.63;;;9.45;45.08
78890;BME280;68279;48.964;14.502;2023-03-01T12:56:28;97521.00;;;8.83;45.83
78890;BME280;68279;48.964;14.502;2023-03-01T13:05:19;97516.34;;;9.05;45.88
78890;BME280;68279;48.964;14.502;2023-03-01T13:07:32;97508.63;;;9.03;46.12
78890;BME280;68279;48.964;14.502;2023-03-01T13:10:11;97517.59;;;9.45;45.71
78890;BME280;68279;48.964;14.502;2023-03-01T13:13:12;97504.09;;;9.72;45.75
78890;BME280;68279;48.964;14.502;2023-03-01T13:15:38;97510.31;;;9.20;45.92
78890;BME280;68279;48.964;14.502;2023-03-01T13:28:39;97502.19;;;9.62;45.03
78890;BME280;68279;48.964;14.502;2023-03-01T13:31:56;97502.00;;;9.84;44.61
78890;BME280;68279;48.964;14.502;2023-03-01T13:34:00;97506.41;;;10.26;43.98
78890;BME280;68279;48.964;14.502;2023-03-01T13:39:30;97519.78;;;10.71;43.84
78890;BME280;68279;48.964;14.502;2023-03-01T13:41:57;97518.94;;;10.91;43.88
78890;BME280;68279;48.964;14.502;2023-03-01T13:46:59;97510.34;;;11.10;44.14
78890;BME280;68279;48.964;14.502;2023-03-01T13:49:41;97515.59;;;11.45;43.27
78890;BME280;68279;48.964;14.502;2023-03-01T13:54:50;97524.47;;;11.35;43.27
78890;BME280;68279;48.964;14.502;2023-03-01T13:57:21;97518.00;;;11.47;41.06
78890;BME280;68279;48.964;14.502;2023-03-01T13:59:49;97524.84;;;10.83;42.39
78890;BME280;68279;48.964;14.502;2023-03-01T14:02:15;97520.50;;;11.13;43.71
78890;BME280;68279;48.964;14.502;2023-03-01T14:04:40;97531.44;;;11.21;42.51
78890;BME280;68279;48.964;14.502;2023-03-01T14:07:23;97530.66;;;11.31;43.78
78890;BME280;68279;48.964;14.502;2023-03-01T14:10:04;97536.84;;;11.11;43.26
78890;BME280;68279;48.964;14.502;2023-03-01T14:15:19;97535.81;;;10.26;45.09
78890;BME280;68279;48.964;14.502;2023-03-01T14:18:24;97535.78;;;10.51;43.25
78890;BME280;68279;48.964;14.502;2023-03-01T14:20:52;97529.94;;;10.54;43.02
78890;BME280;68279;48.964;14.502;2023-03-01T14:23:21;97530.22;;;10.78;43.32
78890;BME280;68279;48.964;14.502;2023-03-01T14:25:57;97532.00;;;11.98;41.81
78890;BME280;68279;48.964;14.502;2023-03-01T14:30:55;97528.66;;;11.67;41.41
78890;BME280;68279;48.964;14.502;2023-03-01T14:33:27;97534.25;;;11.76;42.08
78890;BME280;68279;48.964;14.502;2023-03-01T14:36:09;97531.19;;;12.42;41.17
78890;BME280;68279;48.964;14.502;2023-03-01T14:38:41;97529.38;;;11.83;40.66
78890;BME280;68279;48.964;14.502;2023-03-01T14:41:14;97529.09;;;12.34;40.13
78890;BME280;68279;48.964;14.502;2023-03-01T14:43:57;97526.44;;;12.97;37.84
78890;BME280;68279;48.964;14.502;2023-03-01T14:46:34;97519.25;;;12.92;37.87
78890;BME280;68279;48.964;14.502;2023-03-01T14:49:09;97513.00;;;12.97;37.53
78890;BME280;68279;48.964;14.502;2023-03-01T14:51:38;97521.53;;;13.04;38.89